Newton, KS

8:45 PM CDT on August 24, 2016 (GMT -0500)
21st and Tyler Rd. | | Change Station

Elev 1371 ft 37.73 °N, 97.45 °W | Updated 29 seconds ago

Overcast
Overcast
80.8 °F
Feels Like 84 °F
N
1.1
Wind Variable Wind from ENE
Gusts 4.5 mph

Today
High -- | Low -- °F
--% Chance of Precip.
Yesterday
High -- | Low -- °F
Precip. -- in
Pressure 29.95 in
Visibility 10.0 miles
Clouds Overcast 11000 ft
Heat Index 84 °F
Dew Point 68.3 °F
Humidity 66%
Rainfall 0.00 in
Snow Depth Not available.
6:52 AM 8:09 PM
Waning Gibbous, 51% visible
METAR KEWK 250056Z AUTO 04007KT 10SM OVC110 22/21 A2999 RMK AO2 TSE2358RAE00 SLP140 P0000 T02220211
Pressure 29.95 in
Visibility 10.0 miles
Clouds Overcast 11000 ft
Heat Index 84 °F
Dew Point 68.3 °F
Humidity 66%
Rainfall 0.00 in
Snow Depth Not available.
6:52 AM 8:09 PM
Waning Gibbous, 51% visible
METAR KEWK 250056Z AUTO 04007KT 10SM OVC110 22/21 A2999 RMK AO2 TSE2358RAE00 SLP140 P0000 T02220211

10-Day Weather Forecast

Almanac

Astronomy

Aug. 24, 2016 Rise Set
Actual Time
Civil Twilight
Nautical Twilight
Astronomical Twilight
Moon
Length of Visible Light
Length of Day
Tomorrow will be .
, % of the Moon is Illuminated

Today's Extremes

State Highs State Lows

Community

WunderPhotos

Upload Photos

1,934,769 photos uploaded!

WunderBlog® & News

Nearby

Air Quality

  Air Quality AQ Index Pollutant
Not available.

Snow Depth

Station Depth Elevation

Earthquake Activity

City Distance Mag. Time & Date
Minimum magnitude displayed is 2.5.

Coastal Water Temperatures

Place Temperature

Stations

Nearby Weather Stations

Station Location Temp. Windchill Dew Point Humidity Wind Precip. Elev Updated Type
                   

Watches & Warnings

There are currently no watches in effect.